sensor_id;sensor_type;location;lat;lon;timestamp;P1;durP1;ratioP1;P2;durP2;ratioP2
14276;SDS011;7222;57.346;12.150;2023-03-20T00:00:38;327.50;;;103.63;;
14276;SDS011;7222;57.346;12.150;2023-03-20T00:03:08;298.90;;;101.50;;
14276;SDS011;7222;57.346;12.150;2023-03-20T00:05:36;251.80;;;90.63;;
14276;SDS011;7222;57.346;12.150;2023-03-20T00:08:05;210.83;;;76.77;;
14276;SDS011;7222;57.346;12.150;2023-03-20T00:10:34;228.83;;;85.10;;
14276;SDS011;7222;57.346;12.150;2023-03-20T00:13:05;206.50;;;80.87;;
14276;SDS011;7222;57.346;12.150;2023-03-20T00:15:36;238.33;;;94.83;;
14276;SDS011;7222;57.346;12.150;2023-03-20T00:18:08;168.40;;;68.17;;
14276;SDS011;7222;57.346;12.150;2023-03-20T00:20:38;221.80;;;76.23;;
14276;SDS011;7222;57.346;12.150;2023-03-20T00:23:05;351.67;;;96.40;;
14276;SDS011;7222;57.346;12.150;2023-03-20T00:25:32;357.20;;;99.17;;
14276;SDS011;7222;57.346;12.150;2023-03-20T00:28:02;359.87;;;98.43;;
14276;SDS011;7222;57.346;12.150;2023-03-20T00:30:48;375.90;;;97.67;;
14276;SDS011;7222;57.346;12.150;2023-03-20T00:33:14;205.17;;;72.07;;
14276;SDS011;7222;57.346;12.150;2023-03-20T00:35:42;553.57;;;125.37;;
14276;SDS011;7222;57.346;12.150;2023-03-20T00:38:08;510.03;;;112.23;;
14276;SDS011;7222;57.346;12.150;2023-03-20T00:40:37;574.90;;;117.20;;
14276;SDS011;7222;57.346;12.150;2023-03-20T00:43:04;603.67;;;123.17;;
14276;SDS011;7222;57.346;12.150;2023-03-20T00:45:31;893.60;;;171.43;;
14276;SDS011;7222;57.346;12.150;2023-03-20T00:48:00;687.77;;;132.30;;
14276;SDS011;7222;57.346;12.150;2023-03-20T00:50:28;759.93;;;139.93;;
14276;SDS011;7222;57.346;12.150;2023-03-20T00:52:57;1016.40;;;191.93;;
14276;SDS011;7222;57.346;12.150;2023-03-20T00:55:26;846.67;;;138.37;;
14276;SDS011;7222;57.346;12.150;2023-03-20T00:57:56;962.57;;;158.07;;
14276;SDS011;7222;57.346;12.150;2023-03-20T01:00:26;879.73;;;153.43;;
14276;SDS011;7222;57.346;12.150;2023-03-20T01:03:00;624.90;;;112.00;;
14276;SDS011;7222;57.346;12.150;2023-03-20T01:05:30;837.60;;;141.07;;
14276;SDS011;7222;57.346;12.150;2023-03-20T01:07:57;882.87;;;147.37;;
14276;SDS011;7222;57.346;12.150;2023-03-20T01:10:25;892.17;;;149.17;;
14276;SDS011;7222;57.346;12.150;2023-03-20T01:12:57;889.17;;;144.10;;
14276;SDS011;7222;57.346;12.150;2023-03-20T01:15:28;1010.93;;;161.87;;
14276;SDS011;7222;57.346;12.150;2023-03-20T01:17:57;801.73;;;132.67;;
14276;SDS011;7222;57.346;12.150;2023-03-20T01:20:25;584.47;;;104.83;;
14276;SDS011;7222;57.346;12.150;2023-03-20T01:22:53;749.10;;;130.93;;
14276;SDS011;7222;57.346;12.150;2023-03-20T01:25:20;864.30;;;144.13;;
14276;SDS011;7222;57.346;12.150;2023-03-20T01:27:48;797.30;;;155.13;;
14276;SDS011;7222;57.346;12.150;2023-03-20T01:30:19;653.23;;;124.57;;
14276;SDS011;7222;57.346;12.150;2023-03-20T01:32:47;637.60;;;124.13;;
14276;SDS011;7222;57.346;12.150;2023-03-20T01:35:15;489.57;;;97.73;;
14276;SDS011;7222;57.346;12.150;2023-03-20T01:37:43;454.97;;;99.93;;
14276;SDS011;7222;57.346;12.150;2023-03-20T01:40:12;418.73;;;87.33;;
14276;SDS011;7222;57.346;12.150;2023-03-20T01:42:47;523.13;;;105.07;;
14276;SDS011;7222;57.346;12.150;2023-03-20T01:45:15;640.47;;;123.40;;
14276;SDS011;7222;57.346;12.150;2023-03-20T01:47:45;736.13;;;140.07;;
14276;SDS011;7222;57.346;12.150;2023-03-20T01:50:26;516.27;;;104.87;;
14276;SDS011;7222;57.346;12.150;2023-03-20T01:52:57;496.47;;;104.70;;
14276;SDS011;7222;57.346;12.150;2023-03-20T01:55:29;415.80;;;91.23;;
14276;SDS011;7222;57.346;12.150;2023-03-20T01:57:58;433.53;;;103.67;;
14276;SDS011;7222;57.346;12.150;2023-03-20T02:00:28;362.10;;;83.70;;
14276;SDS011;7222;57.346;12.150;2023-03-20T02:02:57;449.20;;;96.00;;
14276;SDS011;7222;57.346;12.150;2023-03-20T02:05:24;370.60;;;79.87;;
14276;SDS011;7222;57.346;12.150;2023-03-20T02:07:58;377.50;;;85.40;;
14276;SDS011;7222;57.346;12.150;2023-03-20T02:10:33;463.27;;;89.13;;
14276;SDS011;7222;57.346;12.150;2023-03-20T02:13:00;681.57;;;116.47;;
14276;SDS011;7222;57.346;12.150;2023-03-20T02:15:29;692.37;;;114.37;;
14276;SDS011;7222;57.346;12.150;2023-03-20T02:17:58;400.70;;;74.27;;
14276;SDS011;7222;57.346;12.150;2023-03-20T02:20:29;743.97;;;120.10;;
14276;SDS011;7222;57.346;12.150;2023-03-20T02:32:05;756.83;;;125.73;;
14276;SDS011;7222;57.346;12.150;2023-03-20T02:38:25;691.13;;;116.43;;
14276;SDS011;7222;57.346;12.150;2023-03-20T02:41:06;527.23;;;99.20;;
14276;SDS011;7222;57.346;12.150;2023-03-20T02:43:42;345.80;;;69.23;;
14276;SDS011;7222;57.346;12.150;2023-03-20T02:46:18;491.53;;;84.00;;
14276;SDS011;7222;57.346;12.150;2023-03-20T02:48:52;537.13;;;89.57;;
14276;SDS011;7222;57.346;12.150;2023-03-20T02:51:24;569.97;;;93.33;;
14276;SDS011;7222;57.346;12.150;2023-03-20T02:54:00;502.17;;;84.33;;
14276;SDS011;7222;57.346;12.150;2023-03-20T02:56:33;524.00;;;89.40;;
14276;SDS011;7222;57.346;12.150;2023-03-20T02:59:06;528.30;;;91.77;;
14276;SDS011;7222;57.346;12.150;2023-03-20T03:01:38;538.57;;;89.07;;
14276;SDS011;7222;57.346;12.150;2023-03-20T03:04:10;494.23;;;80.83;;
14276;SDS011;7222;57.346;12.150;2023-03-20T03:06:42;404.03;;;76.63;;
14276;SDS011;7222;57.346;12.150;2023-03-20T03:09:16;449.00;;;78.77;;
14276;SDS011;7222;57.346;12.150;2023-03-20T03:11:47;373.40;;;69.73;;
14276;SDS011;7222;57.346;12.150;2023-03-20T03:14:18;340.97;;;64.83;;
14276;SDS011;7222;57.346;12.150;2023-03-20T03:16:52;301.93;;;61.40;;
14276;SDS011;7222;57.346;12.150;2023-03-20T03:19:22;276.70;;;60.13;;
14276;SDS011;7222;57.346;12.150;2023-03-20T03:21:52;298.37;;;60.13;;
14276;SDS011;7222;57.346;12.150;2023-03-20T03:24:26;339.03;;;59.37;;
14276;SDS011;7222;57.346;12.150;2023-03-20T03:26:55;404.93;;;68.47;;
14276;SDS011;7222;57.346;12.150;2023-03-20T03:29:24;258.93;;;48.13;;
14276;SDS011;7222;57.346;12.150;2023-03-20T03:31:55;541.77;;;80.20;;
14276;SDS011;7222;57.346;12.150;2023-03-20T03:34:22;172.87;;;41.43;;
14276;SDS011;7222;57.346;12.150;2023-03-20T03:36:52;151.03;;;38.63;;
14276;SDS011;7222;57.346;12.150;2023-03-20T03:39:29;220.23;;;46.20;;
14276;SDS011;7222;57.346;12.150;2023-03-20T03:42:06;402.10;;;67.83;;
14276;SDS011;7222;57.346;12.150;2023-03-20T03:44:40;188.53;;;40.97;;
14276;SDS011;7222;57.346;12.150;2023-03-20T03:47:13;197.37;;;44.77;;
14276;SDS011;7222;57.346;12.150;2023-03-20T03:49:46;296.30;;;48.87;;
14276;SDS011;7222;57.346;12.150;2023-03-20T03:52:16;311.57;;;51.43;;
14276;SDS011;7222;57.346;12.150;2023-03-20T03:54:50;468.43;;;71.67;;
14276;SDS011;7222;57.346;12.150;2023-03-20T03:57:21;523.33;;;71.67;;
14276;SDS011;7222;57.346;12.150;2023-03-20T03:59:53;624.50;;;83.40;;
14276;SDS011;7222;57.346;12.150;2023-03-20T04:02:22;545.13;;;76.47;;
14276;SDS011;7222;57.346;12.150;2023-03-20T04:04:50;607.47;;;79.40;;
14276;SDS011;7222;57.346;12.150;2023-03-20T04:07:19;637.13;;;84.00;;
14276;SDS011;7222;57.346;12.150;2023-03-20T04:09:47;607.93;;;80.50;;
14276;SDS011;7222;57.346;12.150;2023-03-20T04:12:31;560.67;;;75.03;;
14276;SDS011;7222;57.346;12.150;2023-03-20T04:15:00;645.07;;;81.53;;
14276;SDS011;7222;57.346;12.150;2023-03-20T04:17:28;515.53;;;66.63;;
14276;SDS011;7222;57.346;12.150;2023-03-20T04:19:55;347.97;;;51.63;;
14276;SDS011;7222;57.346;12.150;2023-03-20T04:22:22;520.27;;;66.63;;
14276;SDS011;7222;57.346;12.150;2023-03-20T04:24:49;511.87;;;69.63;;
14276;SDS011;7222;57.346;12.150;2023-03-20T04:27:16;532.23;;;65.80;;
14276;SDS011;7222;57.346;12.150;2023-03-20T04:29:46;440.80;;;55.57;;
14276;SDS011;7222;57.346;12.150;2023-03-20T04:32:13;520.27;;;64.80;;
14276;SDS011;7222;57.346;12.150;2023-03-20T04:34:40;529.03;;;65.80;;
14276;SDS011;7222;57.346;12.150;2023-03-20T04:37:07;527.77;;;63.80;;
14276;SDS011;7222;57.346;12.150;2023-03-20T04:39:34;468.87;;;57.57;;
14276;SDS011;7222;57.346;12.150;2023-03-20T04:42:01;489.80;;;57.97;;
14276;SDS011;7222;57.346;12.150;2023-03-20T04:44:30;579.13;;;69.13;;
14276;SDS011;7222;57.346;12.150;2023-03-20T04:46:58;475.63;;;57.10;;
14276;SDS011;7222;57.346;12.150;2023-03-20T04:49:26;478.37;;;56.03;;
14276;SDS011;7222;57.346;12.150;2023-03-20T04:51:53;315.57;;;42.37;;
14276;SDS011;7222;57.346;12.150;2023-03-20T04:54:21;438.23;;;54.33;;
14276;SDS011;7222;57.346;12.150;2023-03-20T04:56:48;479.83;;;55.20;;
14276;SDS011;7222;57.346;12.150;2023-03-20T04:59:15;444.60;;;51.70;;
14276;SDS011;7222;57.346;12.150;2023-03-20T05:01:42;472.17;;;57.50;;
14276;SDS011;7222;57.346;12.150;2023-03-20T05:04:10;310.63;;;38.73;;
14276;SDS011;7222;57.346;12.150;2023-03-20T05:06:37;455.10;;;54.23;;
14276;SDS011;7222;57.346;12.150;2023-03-20T05:09:04;407.73;;;49.07;;
14276;SDS011;7222;57.346;12.150;2023-03-20T05:11:31;391.90;;;47.33;;
14276;SDS011;7222;57.346;12.150;2023-03-20T05:13:58;427.30;;;48.17;;
14276;SDS011;7222;57.346;12.150;2023-03-20T05:16:24;375.70;;;42.03;;
14276;SDS011;7222;57.346;12.150;2023-03-20T05:18:51;404.20;;;48.73;;
14276;SDS011;7222;57.346;12.150;2023-03-20T05:21:20;392.30;;;45.23;;
14276;SDS011;7222;57.346;12.150;2023-03-20T05:23:47;208.10;;;28.97;;
14276;SDS011;7222;57.346;12.150;2023-03-20T05:26:14;348.93;;;40.60;;
14276;SDS011;7222;57.346;12.150;2023-03-20T05:28:41;407.27;;;46.63;;
14276;SDS011;7222;57.346;12.150;2023-03-20T05:31:08;398.03;;;44.70;;
14276;SDS011;7222;57.346;12.150;2023-03-20T05:33:35;398.30;;;45.93;;
14276;SDS011;7222;57.346;12.150;2023-03-20T05:36:02;367.03;;;42.20;;
14276;SDS011;7222;57.346;12.150;2023-03-20T05:38:31;438.37;;;47.33;;
14276;SDS011;7222;57.346;12.150;2023-03-20T05:40:58;296.63;;;34.83;;
14276;SDS011;7222;57.346;12.150;2023-03-20T05:43:25;160.90;;;24.83;;
14276;SDS011;7222;57.346;12.150;2023-03-20T05:45:53;401.93;;;45.60;;
14276;SDS011;7222;57.346;12.150;2023-03-20T05:48:20;360.33;;;41.93;;
14276;SDS011;7222;57.346;12.150;2023-03-20T05:50:47;347.87;;;39.17;;
14276;SDS011;7222;57.346;12.150;2023-03-20T05:53:14;400.63;;;42.17;;
14276;SDS011;7222;57.346;12.150;2023-03-20T05:55:42;358.47;;;39.13;;
14276;SDS011;7222;57.346;12.150;2023-03-20T05:58:09;385.47;;;39.93;;
14276;SDS011;7222;57.346;12.150;2023-03-20T06:00:37;317.33;;;35.27;;
14276;SDS011;7222;57.346;12.150;2023-03-20T06:03:04;350.97;;;39.13;;
14276;SDS011;7222;57.346;12.150;2023-03-20T06:05:32;315.73;;;37.40;;
14276;SDS011;7222;57.346;12.150;2023-03-20T06:07:59;292.53;;;34.77;;
14276;SDS011;7222;57.346;12.150;2023-03-20T06:10:26;375.20;;;40.07;;
14276;SDS011;7222;57.346;12.150;2023-03-20T06:12:55;366.30;;;39.30;;
14276;SDS011;7222;57.346;12.150;2023-03-20T06:15:25;361.97;;;40.80;;
14276;SDS011;7222;57.346;12.150;2023-03-20T06:17:52;344.67;;;39.60;;
14276;SDS011;7222;57.346;12.150;2023-03-20T06:20:19;290.10;;;34.13;;
14276;SDS011;7222;57.346;12.150;2023-03-20T06:22:46;399.97;;;43.57;;
14276;SDS011;7222;57.346;12.150;2023-03-20T06:25:13;368.90;;;43.10;;
14276;SDS011;7222;57.346;12.150;2023-03-20T06:27:40;352.57;;;38.87;;
14276;SDS011;7222;57.346;12.150;2023-03-20T06:30:09;452.50;;;47.57;;
14276;SDS011;7222;57.346;12.150;2023-03-20T06:32:37;494.47;;;49.70;;
14276;SDS011;7222;57.346;12.150;2023-03-20T06:35:04;227.57;;;28.30;;
14276;SDS011;7222;57.346;12.150;2023-03-20T06:37:32;375.67;;;39.43;;
14276;SDS011;7222;57.346;12.150;2023-03-20T06:40:00;404.47;;;44.27;;
14276;SDS011;7222;57.346;12.150;2023-03-20T06:42:27;282.77;;;32.30;;
14276;SDS011;7222;57.346;12.150;2023-03-20T06:44:54;328.03;;;35.40;;
14276;SDS011;7222;57.346;12.150;2023-03-20T06:47:23;261.17;;;28.87;;
14276;SDS011;7222;57.346;12.150;2023-03-20T06:49:51;377.03;;;41.23;;
14276;SDS011;7222;57.346;12.150;2023-03-20T06:52:18;159.83;;;19.23;;
14276;SDS011;7222;57.346;12.150;2023-03-20T06:54:47;396.53;;;41.03;;
14276;SDS011;7222;57.346;12.150;2023-03-20T06:57:15;328.97;;;35.60;;
14276;SDS011;7222;57.346;12.150;2023-03-20T06:59:42;231.63;;;28.47;;
14276;SDS011;7222;57.346;12.150;2023-03-20T07:02:09;163.77;;;20.40;;
14276;SDS011;7222;57.346;12.150;2023-03-20T07:04:38;212.33;;;25.23;;
14276;SDS011;7222;57.346;12.150;2023-03-20T07:07:05;241.27;;;28.23;;
14276;SDS011;7222;57.346;12.150;2023-03-20T07:09:32;344.00;;;38.13;;
14276;SDS011;7222;57.346;12.150;2023-03-20T07:11:59;268.20;;;30.30;;
14276;SDS011;7222;57.346;12.150;2023-03-20T07:14:28;277.23;;;31.40;;
14276;SDS011;7222;57.346;12.150;2023-03-20T07:16:56;332.03;;;36.50;;
14276;SDS011;7222;57.346;12.150;2023-03-20T07:19:22;306.17;;;35.93;;
14276;SDS011;7222;57.346;12.150;2023-03-20T07:21:52;212.47;;;26.10;;
14276;SDS011;7222;57.346;12.150;2023-03-20T07:24:25;218.70;;;24.83;;
14276;SDS011;7222;57.346;12.150;2023-03-20T07:26:53;191.67;;;23.47;;
14276;SDS011;7222;57.346;12.150;2023-03-20T07:29:20;194.50;;;23.80;;
14276;SDS011;7222;57.346;12.150;2023-03-20T07:31:47;257.27;;;31.30;;
14276;SDS011;7222;57.346;12.150;2023-03-20T07:34:14;188.63;;;26.17;;
14276;SDS011;7222;57.346;12.150;2023-03-20T07:36:41;210.27;;;27.00;;
14276;SDS011;7222;57.346;12.150;2023-03-20T07:39:09;88.93;;;14.37;;
14276;SDS011;7222;57.346;12.150;2023-03-20T07:41:38;389.67;;;41.50;;
14276;SDS011;7222;57.346;12.150;2023-03-20T07:44:05;179.97;;;24.07;;
14276;SDS011;7222;57.346;12.150;2023-03-20T07:46:34;170.77;;;20.40;;
14276;SDS011;7222;57.346;12.150;2023-03-20T07:49:01;268.47;;;30.83;;
14276;SDS011;7222;57.346;12.150;2023-03-20T07:51:29;327.17;;;34.10;;
14276;SDS011;7222;57.346;12.150;2023-03-20T07:53:56;398.07;;;41.73;;
14276;SDS011;7222;57.346;12.150;2023-03-20T07:56:25;250.30;;;29.93;;
14276;SDS011;7222;57.346;12.150;2023-03-20T07:58:52;239.40;;;27.77;;
14276;SDS011;7222;57.346;12.150;2023-03-20T08:01:18;394.97;;;43.93;;
14276;SDS011;7222;57.346;12.150;2023-03-20T08:03:45;518.63;;;52.57;;
14276;SDS011;7222;57.346;12.150;2023-03-20T08:06:12;344.50;;;38.73;;
14276;SDS011;7222;57.346;12.150;2023-03-20T08:08:39;462.20;;;51.73;;
14276;SDS011;7222;57.346;12.150;2023-03-20T08:11:06;316.03;;;37.40;;
14276;SDS011;7222;57.346;12.150;2023-03-20T08:13:34;309.53;;;37.90;;
14276;SDS011;7222;57.346;12.150;2023-03-20T08:16:02;352.27;;;43.20;;
14276;SDS011;7222;57.346;12.150;2023-03-20T08:18:30;236.83;;;33.00;;
14276;SDS011;7222;57.346;12.150;2023-03-20T08:20:56;189.60;;;26.33;;
14276;SDS011;7222;57.346;12.150;2023-03-20T08:23:24;142.07;;;19.80;;
14276;SDS011;7222;57.346;12.150;2023-03-20T08:25:51;104.57;;;19.97;;
14276;SDS011;7222;57.346;12.150;2023-03-20T08:28:19;52.37;;;14.17;;
14276;SDS011;7222;57.346;12.150;2023-03-20T08:30:48;46.27;;;11.93;;
14276;SDS011;7222;57.346;12.150;2023-03-20T08:33:18;34.40;;;11.43;;
14276;SDS011;7222;57.346;12.150;2023-03-20T08:35:53;24.90;;;9.60;;
14276;SDS011;7222;57.346;12.150;2023-03-20T08:38:21;19.50;;;8.83;;
14276;SDS011;7222;57.346;12.150;2023-03-20T08:40:47;15.33;;;7.30;;
14276;SDS011;7222;57.346;12.150;2023-03-20T08:43:14;15.60;;;6.60;;
14276;SDS011;7222;57.346;12.150;2023-03-20T08:45:42;13.73;;;7.10;;
14276;SDS011;7222;57.346;12.150;2023-03-20T08:48:10;10.77;;;5.90;;
14276;SDS011;7222;57.346;12.150;2023-03-20T08:50:38;10.03;;;5.13;;
14276;SDS011;7222;57.346;12.150;2023-03-20T08:53:05;10.17;;;4.93;;
14276;SDS011;7222;57.346;12.150;2023-03-20T08:55:32;8.60;;;4.27;;
14276;SDS011;7222;57.346;12.150;2023-03-20T08:57:59;10.03;;;4.37;;
14276;SDS011;7222;57.346;12.150;2023-03-20T09:00:26;5.97;;;4.00;;
14276;SDS011;7222;57.346;12.150;2023-03-20T09:02:53;7.80;;;3.80;;
14276;SDS011;7222;57.346;12.150;2023-03-20T09:05:22;6.53;;;3.60;;
14276;SDS011;7222;57.346;12.150;2023-03-20T09:07:49;10.57;;;3.60;;
14276;SDS011;7222;57.346;12.150;2023-03-20T09:10:16;9.07;;;3.50;;
14276;SDS011;7222;57.346;12.150;2023-03-20T09:12:43;7.30;;;2.70;;
14276;SDS011;7222;57.346;12.150;2023-03-20T09:15:10;6.90;;;3.60;;
14276;SDS011;7222;57.346;12.150;2023-03-20T09:17:37;6.30;;;2.73;;
14276;SDS011;7222;57.346;12.150;2023-03-20T09:20:04;7.67;;;3.03;;
14276;SDS011;7222;57.346;12.150;2023-03-20T09:22:33;6.97;;;3.30;;
14276;SDS011;7222;57.346;12.150;2023-03-20T09:25:00;14.77;;;3.20;;
14276;SDS011;7222;57.346;12.150;2023-03-20T09:27:27;8.23;;;2.90;;
14276;SDS011;7222;57.346;12.150;2023-03-20T09:29:54;11.00;;;2.97;;
14276;SDS011;7222;57.346;12.150;2023-03-20T09:32:21;10.57;;;3.07;;
14276;SDS011;7222;57.346;12.150;2023-03-20T09:34:48;5.17;;;2.93;;
14276;SDS011;7222;57.346;12.150;2023-03-20T09:37:14;4.40;;;2.10;;
14276;SDS011;7222;57.346;12.150;2023-03-20T09:39:43;6.40;;;2.70;;
14276;SDS011;7222;57.346;12.150;2023-03-20T09:42:14;5.10;;;2.33;;
14276;SDS011;7222;57.346;12.150;2023-03-20T09:44:52;5.60;;;2.83;;
14276;SDS011;7222;57.346;12.150;2023-03-20T09:47:29;5.70;;;2.03;;
14276;SDS011;7222;57.346;12.150;2023-03-20T09:50:07;6.50;;;2.13;;
14276;SDS011;7222;57.346;12.150;2023-03-20T09:52:48;7.60;;;2.00;;
14276;SDS011;7222;57.346;12.150;2023-03-20T09:55:24;2.63;;;2.20;;
14276;SDS011;7222;57.346;12.150;2023-03-20T09:57:58;5.73;;;2.37;;
14276;SDS011;7222;57.346;12.150;2023-03-20T10:00:30;6.77;;;2.53;;
14276;SDS011;7222;57.346;12.150;2023-03-20T10:02:59;7.90;;;3.30;;
14276;SDS011;7222;57.346;12.150;2023-03-20T10:05:29;5.27;;;2.33;;
14276;SDS011;7222;57.346;12.150;2023-03-20T10:08:00;7.87;;;2.70;;
14276;SDS011;7222;57.346;12.150;2023-03-20T10:10:31;5.20;;;2.63;;
14276;SDS011;7222;57.346;12.150;2023-03-20T10:13:10;7.53;;;2.50;;
14276;SDS011;7222;57.346;12.150;2023-03-20T10:15:50;5.27;;;3.60;;
14276;SDS011;7222;57.346;12.150;2023-03-20T10:18:27;7.63;;;3.20;;
14276;SDS011;7222;57.346;12.150;2023-03-20T10:20:58;10.80;;;3.23;;
14276;SDS011;7222;57.346;12.150;2023-03-20T10:23:32;4.03;;;2.67;;
14276;SDS011;7222;57.346;12.150;2023-03-20T10:26:04;5.33;;;2.17;;
14276;SDS011;7222;57.346;12.150;2023-03-20T10:28:35;6.00;;;2.40;;
14276;SDS011;7222;57.346;12.150;2023-03-20T10:31:21;9.57;;;3.00;;
14276;SDS011;7222;57.346;12.150;2023-03-20T10:34:00;4.10;;;2.23;;
14276;SDS011;7222;57.346;12.150;2023-03-20T10:36:42;5.33;;;2.10;;
14276;SDS011;7222;57.346;12.150;2023-03-20T10:39:19;6.23;;;2.23;;
14276;SDS011;7222;57.346;12.150;2023-03-20T10:42:00;10.93;;;2.50;;
14276;SDS011;7222;57.346;12.150;2023-03-20T10:44:31;9.40;;;3.17;;
14276;SDS011;7222;57.346;12.150;2023-03-20T10:47:02;7.50;;;2.53;;
14276;SDS011;7222;57.346;12.150;2023-03-20T10:49:34;9.17;;;2.63;;
14276;SDS011;7222;57.346;12.150;2023-03-20T10:52:04;9.67;;;2.70;;
14276;SDS011;7222;57.346;12.150;2023-03-20T10:54:36;8.30;;;2.50;;
14276;SDS011;7222;57.346;12.150;2023-03-20T10:57:09;8.00;;;2.50;;
14276;SDS011;7222;57.346;12.150;2023-03-20T10:59:42;7.37;;;2.57;;
14276;SDS011;7222;57.346;12.150;2023-03-20T11:02:14;8.03;;;2.80;;
14276;SDS011;7222;57.346;12.150;2023-03-20T11:04:42;8.83;;;3.20;;
14276;SDS011;7222;57.346;12.150;2023-03-20T11:07:12;6.67;;;2.83;;
14276;SDS011;7222;57.346;12.150;2023-03-20T11:09:44;11.10;;;2.67;;
14276;SDS011;7222;57.346;12.150;2023-03-20T11:12:15;7.27;;;2.80;;
14276;SDS011;7222;57.346;12.150;2023-03-20T11:14:44;5.93;;;2.50;;
14276;SDS011;7222;57.346;12.150;2023-03-20T11:17:12;8.67;;;2.60;;
14276;SDS011;7222;57.346;12.150;2023-03-20T11:19:39;8.93;;;2.97;;
14276;SDS011;7222;57.346;12.150;2023-03-20T11:22:08;8.20;;;2.53;;
14276;SDS011;7222;57.346;12.150;2023-03-20T11:24:50;8.87;;;2.30;;
14276;SDS011;7222;57.346;12.150;2023-03-20T11:27:24;12.20;;;2.97;;
14276;SDS011;7222;57.346;12.150;2023-03-20T11:29:52;7.63;;;3.07;;
14276;SDS011;7222;57.346;12.150;2023-03-20T11:32:26;8.63;;;2.73;;
14276;SDS011;7222;57.346;12.150;2023-03-20T11:34:54;8.77;;;3.30;;
14276;SDS011;7222;57.346;12.150;2023-03-20T11:37:23;12.50;;;3.33;;
14276;SDS011;7222;57.346;12.150;2023-03-20T11:39:56;8.83;;;3.07;;
14276;SDS011;7222;57.346;12.150;2023-03-20T11:42:27;8.53;;;3.07;;
14276;SDS011;7222;57.346;12.150;2023-03-20T11:44:56;9.43;;;3.40;;
14276;SDS011;7222;57.346;12.150;2023-03-20T11:47:27;8.00;;;2.63;;
14276;SDS011;7222;57.346;12.150;2023-03-20T11:49:59;12.17;;;2.97;;
14276;SDS011;7222;57.346;12.150;2023-03-20T11:52:30;9.40;;;2.83;;
14276;SDS011;7222;57.346;12.150;2023-03-20T11:54:59;9.07;;;3.00;;
14276;SDS011;7222;57.346;12.150;2023-03-20T11:57:30;9.87;;;2.93;;
14276;SDS011;7222;57.346;12.150;2023-03-20T12:00:00;13.37;;;3.30;;
14276;SDS011;7222;57.346;12.150;2023-03-20T12:02:30;11.13;;;3.23;;
14276;SDS011;7222;57.346;12.150;2023-03-20T12:04:58;6.40;;;2.67;;
14276;SDS011;7222;57.346;12.150;2023-03-20T12:07:26;8.50;;;3.30;;
14276;SDS011;7222;57.346;12.150;2023-03-20T12:09:56;14.57;;;3.03;;
14276;SDS011;7222;57.346;12.150;2023-03-20T12:12:32;9.43;;;2.57;;
14276;SDS011;7222;57.346;12.150;2023-03-20T12:15:07;7.87;;;3.40;;
14276;SDS011;7222;57.346;12.150;2023-03-20T12:17:43;10.37;;;2.97;;
14276;SDS011;7222;57.346;12.150;2023-03-20T12:20:27;9.50;;;3.00;;
14276;SDS011;7222;57.346;12.150;2023-03-20T12:23:04;10.17;;;2.90;;
14276;SDS011;7222;57.346;12.150;2023-03-20T12:25:39;7.97;;;2.30;;
14276;SDS011;7222;57.346;12.150;2023-03-20T12:28:16;12.77;;;2.73;;
14276;SDS011;7222;57.346;12.150;2023-03-20T12:30:51;6.60;;;2.73;;
14276;SDS011;7222;57.346;12.150;2023-03-20T12:33:26;10.17;;;2.87;;
14276;SDS011;7222;57.346;12.150;2023-03-20T12:36:07;7.77;;;2.60;;
14276;SDS011;7222;57.346;12.150;2023-03-20T12:38:39;8.60;;;2.50;;
14276;SDS011;7222;57.346;12.150;2023-03-20T12:41:10;10.60;;;2.63;;
14276;SDS011;7222;57.346;12.150;2023-03-20T12:43:43;9.20;;;2.63;;
14276;SDS011;7222;57.346;12.150;2023-03-20T12:46:29;9.93;;;2.47;;
14276;SDS011;7222;57.346;12.150;2023-03-20T12:49:06;8.23;;;3.30;;
14276;SDS011;7222;57.346;12.150;2023-03-20T12:51:45;8.50;;;2.47;;
14276;SDS011;7222;57.346;12.150;2023-03-20T12:54:26;10.00;;;2.13;;
14276;SDS011;7222;57.346;12.150;2023-03-20T12:57:05;10.63;;;3.00;;
14276;SDS011;7222;57.346;12.150;2023-03-20T12:59:44;10.20;;;2.37;;
14276;SDS011;7222;57.346;12.150;2023-03-20T13:02:23;9.17;;;2.60;;
14276;SDS011;7222;57.346;12.150;2023-03-20T13:05:02;6.50;;;1.97;;
14276;SDS011;7222;57.346;12.150;2023-03-20T13:07:40;8.70;;;2.40;;
14276;SDS011;7222;57.346;12.150;2023-03-20T13:10:19;8.80;;;2.27;;
14276;SDS011;7222;57.346;12.150;2023-03-20T13:12:50;5.70;;;2.00;;
14276;SDS011;7222;57.346;12.150;2023-03-20T13:15:34;6.27;;;2.10;;
14276;SDS011;7222;57.346;12.150;2023-03-20T13:18:13;5.67;;;2.13;;
14276;SDS011;7222;57.346;12.150;2023-03-20T13:20:46;10.90;;;2.53;;
14276;SDS011;7222;57.346;12.150;2023-03-20T13:23:18;8.00;;;2.20;;
14276;SDS011;7222;57.346;12.150;2023-03-20T13:25:51;6.30;;;1.50;;
14276;SDS011;7222;57.346;12.150;2023-03-20T13:28:28;9.47;;;1.97;;
14276;SDS011;7222;57.346;12.150;2023-03-20T13:31:03;4.00;;;2.00;;
14276;SDS011;7222;57.346;12.150;2023-03-20T13:33:42;7.27;;;2.13;;
14276;SDS011;7222;57.346;12.150;2023-03-20T13:36:19;6.97;;;2.03;;
14276;SDS011;7222;57.346;12.150;2023-03-20T13:38:56;5.40;;;1.93;;
14276;SDS011;7222;57.346;12.150;2023-03-20T13:41:28;4.90;;;2.03;;
14276;SDS011;7222;57.346;12.150;2023-03-20T13:43:57;10.80;;;2.90;;
14276;SDS011;7222;57.346;12.150;2023-03-20T13:46:30;8.97;;;1.87;;
14276;SDS011;7222;57.346;12.150;2023-03-20T13:49:01;5.77;;;1.93;;
14276;SDS011;7222;57.346;12.150;2023-03-20T13:51:34;4.87;;;1.70;;
14276;SDS011;7222;57.346;12.150;2023-03-20T13:54:16;7.17;;;1.97;;
14276;SDS011;7222;57.346;12.150;2023-03-20T13:57:08;5.83;;;1.70;;
14276;SDS011;7222;57.346;12.150;2023-03-20T13:59:47;8.00;;;2.37;;
14276;SDS011;7222;57.346;12.150;2023-03-20T14:02:25;6.07;;;1.97;;
14276;SDS011;7222;57.346;12.150;2023-03-20T14:05:02;13.30;;;2.77;;
14276;SDS011;7222;57.346;12.150;2023-03-20T14:07:32;7.20;;;2.20;;
14276;SDS011;7222;57.346;12.150;2023-03-20T14:13:09;6.97;;;2.37;;
14276;SDS011;7222;57.346;12.150;2023-03-20T14:15:40;9.87;;;1.97;;
14276;SDS011;7222;57.346;12.150;2023-03-20T14:18:15;8.43;;;1.63;;
14276;SDS011;7222;57.346;12.150;2023-03-20T14:20:43;7.87;;;2.13;;
14276;SDS011;7222;57.346;12.150;2023-03-20T14:23:19;4.23;;;2.10;;
14276;SDS011;7222;57.346;12.150;2023-03-20T14:25:55;9.13;;;2.43;;
14276;SDS011;7222;57.346;12.150;2023-03-20T14:28:24;6.90;;;2.33;;
14276;SDS011;7222;57.346;12.150;2023-03-20T14:31:11;7.87;;;2.10;;
14276;SDS011;7222;57.346;12.150;2023-03-20T14:33:52;8.60;;;2.50;;
14276;SDS011;7222;57.346;12.150;2023-03-20T14:36:28;9.17;;;2.90;;
14276;SDS011;7222;57.346;12.150;2023-03-20T14:39:11;8.40;;;3.03;;
14276;SDS011;7222;57.346;12.150;2023-03-20T14:41:55;10.03;;;2.53;;
14276;SDS011;7222;57.346;12.150;2023-03-20T14:44:30;8.07;;;3.10;;
14276;SDS011;7222;57.346;12.150;2023-03-20T14:47:16;9.20;;;2.50;;
14276;SDS011;7222;57.346;12.150;2023-03-20T14:49:53;6.43;;;2.03;;
14276;SDS011;7222;57.346;12.150;2023-03-20T14:52:36;8.83;;;3.30;;
14276;SDS011;7222;57.346;12.150;2023-03-20T14:58:01;12.80;;;3.03;;
14276;SDS011;7222;57.346;12.150;2023-03-20T15:00:32;8.30;;;2.33;;
14276;SDS011;7222;57.346;12.150;2023-03-20T15:03:03;6.97;;;2.13;;